createdAt,value
2023-03-05T00:01:35.468Z,23.90
2023-03-05T00:04:03.923Z,25.60
2023-03-05T00:06:31.718Z,23.02
2023-03-05T00:08:58.741Z,26.05
2023-03-05T00:11:30.071Z,21.10
2023-03-05T00:13:57.762Z,22.05
2023-03-05T00:16:26.881Z,21.77
2023-03-05T00:18:55.395Z,21.02
2023-03-05T00:21:28.080Z,21.50
2023-03-05T00:23:56.374Z,21.40
2023-03-05T00:26:26.647Z,23.70
2023-03-05T00:28:54.726Z,24.42
2023-03-05T00:31:24.468Z,21.65
2023-03-05T00:33:55.579Z,20.70
2023-03-05T00:36:22.785Z,23.00
2023-03-05T00:38:49.466Z,23.30
2023-03-05T00:41:16.317Z,22.38
2023-03-05T00:43:43.051Z,22.23
2023-03-05T00:46:09.857Z,19.33
2023-03-05T00:48:36.772Z,21.75
2023-03-05T00:51:03.802Z,22.52
2023-03-05T00:53:30.583Z,24.38
2023-03-05T00:55:57.145Z,22.13
2023-03-05T00:58:23.814Z,24.10
2023-03-05T01:00:50.826Z,18.08
2023-03-05T01:03:20.578Z,23.48
2023-03-05T01:05:47.196Z,20.15
2023-03-05T01:08:14.183Z,21.55
2023-03-05T01:10:40.770Z,19.40
2023-03-05T01:13:07.374Z,18.20
2023-03-05T01:15:33.955Z,20.48
2023-03-05T01:18:00.579Z,19.80
2023-03-05T01:20:27.298Z,17.30
2023-03-05T01:22:54.684Z,20.90
2023-03-05T01:25:21.303Z,21.48
2023-03-05T01:27:48.008Z,21.65
2023-03-05T01:30:15.915Z,20.65
2023-03-05T01:32:42.771Z,19.23
2023-03-05T01:35:15.456Z,23.30
2023-03-05T01:37:42.282Z,19.23
2023-03-05T01:40:11.158Z,22.73
2023-03-05T01:42:37.725Z,17.88
2023-03-05T01:45:10.094Z,17.08
2023-03-05T01:47:37.344Z,21.65
2023-03-05T01:50:07.358Z,19.33
2023-03-05T01:52:36.871Z,21.25
2023-03-05T01:55:11.999Z,19.48
2023-03-05T01:57:44.212Z,18.83
2023-03-05T02:00:18.846Z,25.35
2023-03-05T02:02:48.918Z,20.33
2023-03-05T02:05:20.662Z,17.15
2023-03-05T02:07:47.501Z,17.55
2023-03-05T02:10:26.846Z,22.05
2023-03-05T02:12:56.202Z,21.63
2023-03-05T02:15:23.129Z,20.05
2023-03-05T02:17:49.974Z,19.00
2023-03-05T02:20:23.383Z,18.73
2023-03-05T02:22:50.328Z,22.40
2023-03-05T02:25:23.679Z,19.00
2023-03-05T02:27:56.787Z,22.48
2023-03-05T02:30:23.482Z,20.55
2023-03-05T02:32:50.098Z,21.88
2023-03-05T02:35:16.834Z,20.42
2023-03-05T02:37:43.472Z,22.63
2023-03-05T02:40:11.404Z,18.08
2023-03-05T02:42:38.576Z,23.33
2023-03-05T02:45:06.174Z,24.38
2023-03-05T02:47:32.814Z,21.13
2023-03-05T02:49:59.993Z,22.15
2023-03-05T02:52:27.839Z,24.15
2023-03-05T02:54:54.400Z,24.00
2023-03-05T02:57:21.057Z,25.75
2023-03-05T02:59:47.675Z,27.45
2023-03-05T03:02:14.405Z,25.25
2023-03-05T03:04:41.341Z,28.13
2023-03-05T03:07:08.061Z,25.17
2023-03-05T03:09:35.997Z,25.77
2023-03-05T03:12:03.591Z,24.02
2023-03-05T03:14:39.014Z,27.00
2023-03-05T03:17:11.653Z,23.95
2023-03-05T03:19:39.034Z,26.65
2023-03-05T03:22:07.159Z,30.55
2023-03-05T03:24:35.491Z,27.60
2023-03-05T03:27:02.331Z,25.55
2023-03-05T03:29:29.099Z,26.15
2023-03-05T03:31:55.716Z,29.85
2023-03-05T03:34:22.577Z,25.20
2023-03-05T03:36:50.645Z,28.08
2023-03-05T03:39:17.925Z,26.63
2023-03-05T03:41:46.372Z,26.73
2023-03-05T03:44:13.682Z,24.20
2023-03-05T03:46:41.310Z,29.45
2023-03-05T03:49:10.655Z,30.63
2023-03-05T03:51:37.249Z,28.05
2023-03-05T03:54:03.856Z,27.35
2023-03-05T03:56:30.615Z,33.80
2023-03-05T03:58:57.257Z,31.60
2023-03-05T04:01:23.997Z,32.03
2023-03-05T04:03:50.610Z,30.20
2023-03-05T04:06:18.527Z,30.35
2023-03-05T04:08:45.144Z,30.92
2023-03-05T04:11:11.853Z,30.60
2023-03-05T04:13:38.464Z,30.77
2023-03-05T04:16:05.577Z,29.55
2023-03-05T04:18:32.659Z,33.13
2023-03-05T04:20:59.391Z,26.30
2023-03-05T04:23:26.149Z,25.55
2023-03-05T04:25:52.938Z,28.10
2023-03-05T04:28:19.652Z,26.30
2023-03-05T04:30:46.343Z,31.38
2023-03-05T04:33:12.946Z,28.25
2023-03-05T04:35:39.677Z,35.22
2023-03-05T04:38:06.576Z,27.30
2023-03-05T04:40:33.588Z,29.92
2023-03-05T04:43:00.220Z,28.08
2023-03-05T04:45:26.829Z,29.63
2023-03-05T04:47:53.489Z,26.90
2023-03-05T04:50:20.278Z,33.63
2023-03-05T04:52:47.132Z,32.65
2023-03-05T04:55:15.693Z,29.60
2023-03-05T04:57:43.142Z,29.88
2023-03-05T05:00:14.288Z,27.67
2023-03-05T05:02:45.791Z,33.75
2023-03-05T05:05:16.213Z,25.90
2023-03-05T05:07:43.089Z,28.75
2023-03-05T05:10:10.753Z,27.33
2023-03-05T05:12:38.045Z,27.08
2023-03-05T05:15:06.676Z,33.05
2023-03-05T05:17:34.147Z,34.72
2023-03-05T05:20:01.631Z,28.05
2023-03-05T05:22:29.230Z,30.73
2023-03-05T05:24:56.532Z,28.25
2023-03-05T05:27:23.564Z,31.70
2023-03-05T05:29:50.455Z,28.67
2023-03-05T05:32:22.450Z,25.80
2023-03-05T05:34:49.844Z,32.38
2023-03-05T05:37:16.445Z,26.48
2023-03-05T05:39:43.086Z,26.77
2023-03-05T05:42:09.773Z,25.63
2023-03-05T05:44:36.345Z,24.70
2023-03-05T05:47:03.038Z,28.20
2023-03-05T05:49:29.598Z,25.88
2023-03-05T05:51:57.089Z,21.45
2023-03-05T05:54:23.689Z,27.00
2023-03-05T05:56:50.484Z,24.15
2023-03-05T05:59:17.095Z,19.40
2023-03-05T06:01:43.861Z,27.38
2023-03-05T06:04:10.431Z,21.33
2023-03-05T06:06:37.084Z,19.48
2023-03-05T06:09:04.823Z,17.38
2023-03-05T06:11:32.730Z,23.20
2023-03-05T06:13:59.702Z,18.58
2023-03-05T06:16:26.511Z,21.67
2023-03-05T06:18:53.695Z,21.45
2023-03-05T06:21:22.471Z,20.25
2023-03-05T06:23:50.216Z,21.08
2023-03-05T06:26:20.117Z,21.25
2023-03-05T06:28:46.924Z,36.38
2023-03-05T06:31:18.368Z,22.70
2023-03-05T06:33:45.581Z,22.48
2023-03-05T06:36:15.570Z,27.98
2023-03-05T06:38:43.003Z,19.35
2023-03-05T06:41:14.735Z,20.20
2023-03-05T06:43:44.079Z,19.92
2023-03-05T06:46:23.088Z,20.65
2023-03-05T06:48:50.971Z,23.88
2023-03-05T06:51:24.821Z,22.40
2023-03-05T06:53:53.050Z,27.77
2023-03-05T06:56:20.719Z,20.05
2023-03-05T06:58:51.447Z,18.45
2023-03-05T07:01:19.180Z,22.83
2023-03-05T07:03:49.583Z,20.73
2023-03-05T07:06:16.602Z,21.55
2023-03-05T07:08:44.957Z,17.40
2023-03-05T07:11:13.884Z,22.40
2023-03-05T07:13:40.868Z,21.60
2023-03-05T07:16:09.705Z,19.27
2023-03-05T07:18:36.696Z,28.85
2023-03-05T07:21:08.266Z,18.10
2023-03-05T07:23:36.095Z,19.52
2023-03-05T07:26:06.712Z,21.85
2023-03-05T07:28:34.440Z,20.33
2023-03-05T07:31:04.223Z,21.45
2023-03-05T07:33:32.140Z,20.13
2023-03-05T07:35:58.844Z,22.75
2023-03-05T07:38:25.484Z,18.45
2023-03-05T07:40:52.008Z,22.67
2023-03-05T07:43:19.283Z,22.63
2023-03-05T07:45:46.657Z,18.52
2023-03-05T07:48:16.706Z,19.83
2023-03-05T07:50:43.846Z,26.50
2023-03-05T07:53:10.513Z,25.77
2023-03-05T07:55:43.231Z,29.30
2023-03-05T07:58:10.546Z,27.08
2023-03-05T08:00:37.487Z,26.45
2023-03-05T08:03:04.374Z,24.88
2023-03-05T08:05:31.031Z,25.45
2023-03-05T08:07:57.757Z,25.75
2023-03-05T08:10:24.410Z,25.38
2023-03-05T08:12:51.026Z,26.60
2023-03-05T08:15:17.892Z,27.05
2023-03-05T08:17:44.496Z,22.52
2023-03-05T08:20:11.911Z,25.20
2023-03-05T08:22:38.912Z,25.17
2023-03-05T08:25:06.378Z,23.08
2023-03-05T08:27:33.420Z,26.00
2023-03-05T08:30:02.476Z,24.85
2023-03-05T08:32:29.536Z,24.88
2023-03-05T08:35:00.259Z,29.80
2023-03-05T08:37:26.835Z,24.85
2023-03-05T08:39:53.448Z,24.60
2023-03-05T08:42:20.021Z,25.65
2023-03-05T08:44:46.653Z,25.20
2023-03-05T08:47:13.452Z,22.45
2023-03-05T08:49:40.151Z,25.73
2023-03-05T08:52:06.762Z,25.40
2023-03-05T08:54:34.418Z,25.10
2023-03-05T08:57:01.560Z,24.08
2023-03-05T08:59:28.138Z,23.40
2023-03-05T09:01:55.094Z,23.30
2023-03-05T09:04:21.690Z,27.02
2023-03-05T09:06:48.378Z,23.10
2023-03-05T09:09:15.176Z,21.95
2023-03-05T09:11:41.724Z,22.15
2023-03-05T09:14:08.380Z,28.27
2023-03-05T09:16:36.323Z,22.67
2023-03-05T09:19:02.987Z,22.33
2023-03-05T09:21:29.593Z,21.73
2023-03-05T09:23:59.664Z,19.10
2023-03-05T09:26:26.661Z,19.75
2023-03-05T09:28:53.339Z,23.38
2023-03-05T09:31:20.119Z,19.67
2023-03-05T09:33:48.633Z,19.38
2023-03-05T09:36:24.262Z,21.92
2023-03-05T09:38:51.501Z,21.15
2023-03-05T09:41:25.276Z,19.35
2023-03-05T09:44:04.063Z,18.05
2023-03-05T09:46:33.458Z,17.45
2023-03-05T09:49:21.371Z,17.52
2023-03-05T09:51:55.717Z,17.77
2023-03-05T09:54:37.806Z,16.80
2023-03-05T09:57:10.774Z,13.88
2023-03-05T09:59:47.452Z,14.02
2023-03-05T10:02:36.918Z,19.00
2023-03-05T10:05:20.903Z,18.15
2023-03-05T10:08:16.270Z,17.33
2023-03-05T10:10:52.991Z,16.70
2023-03-05T10:13:22.435Z,17.85
2023-03-05T10:16:34.771Z,19.55
2023-03-05T10:19:19.025Z,18.73
2023-03-05T10:22:14.886Z,32.47
2023-03-05T10:25:14.008Z,58.10
2023-03-05T10:27:54.207Z,22.67
2023-03-05T10:30:26.830Z,18.38
2023-03-05T10:33:16.535Z,20.70
2023-03-05T10:36:06.502Z,14.98
2023-03-05T10:38:42.241Z,16.45
2023-03-05T10:41:22.114Z,13.20
2023-03-05T10:44:06.044Z,15.48
2023-03-05T10:46:36.455Z,11.23
2023-03-05T10:49:15.809Z,12.73
2023-03-05T10:51:59.750Z,15.95
2023-03-05T10:54:31.540Z,12.98
2023-03-05T10:57:21.316Z,13.68
2023-03-05T11:00:14.482Z,15.35
2023-03-05T11:02:56.305Z,12.48
2023-03-05T11:06:02.407Z,15.07
2023-03-05T11:08:34.691Z,14.05
2023-03-05T11:11:10.230Z,15.90
2023-03-05T11:13:44.174Z,12.35
2023-03-05T11:16:20.933Z,15.00
2023-03-05T11:18:47.963Z,14.40
2023-03-05T11:21:27.811Z,10.30
2023-03-05T11:24:14.869Z,19.63
2023-03-05T11:26:53.384Z,11.70
2023-03-05T11:29:27.891Z,10.98
2023-03-05T11:31:54.620Z,10.93
2023-03-05T11:34:26.072Z,11.55
2023-03-05T11:36:58.636Z,14.02
2023-03-05T11:39:26.369Z,10.77
2023-03-05T11:42:17.269Z,14.93
2023-03-05T11:44:48.726Z,10.27
2023-03-05T11:47:24.377Z,10.95
2023-03-05T11:49:57.684Z,14.05
2023-03-05T11:52:32.346Z,22.92
2023-03-05T11:55:25.967Z,19.88
2023-03-05T11:58:08.134Z,13.65
2023-03-05T12:00:37.051Z,11.10
2023-03-05T12:03:11.600Z,9.95
2023-03-05T12:05:41.985Z,13.55
2023-03-05T12:08:15.475Z,13.25
2023-03-05T12:10:42.014Z,17.73
2023-03-05T12:13:22.222Z,39.97
2023-03-05T12:16:36.669Z,20.27
2023-03-05T12:19:18.105Z,70.43
2023-03-05T12:21:50.301Z,19.38
2023-03-05T12:24:28.366Z,18.48
2023-03-05T12:27:04.398Z,23.95
2023-03-05T12:29:41.443Z,16.05
2023-03-05T12:32:23.253Z,12.45
2023-03-05T12:35:06.282Z,18.98
2023-03-05T12:37:32.777Z,11.52
2023-03-05T12:40:01.141Z,13.52
2023-03-05T12:42:31.580Z,14.20
2023-03-05T12:45:10.089Z,13.82
2023-03-05T12:47:40.225Z,11.75
2023-03-05T12:50:28.823Z,13.55
2023-03-05T12:52:58.075Z,12.65
2023-03-05T12:55:51.195Z,12.25
2023-03-05T12:58:42.834Z,13.23
2023-03-05T13:01:16.361Z,10.65
2023-03-05T13:03:53.090Z,16.77
2023-03-05T13:06:45.939Z,9.18
2023-03-05T13:09:24.065Z,14.02
2023-03-05T13:11:53.926Z,10.07
2023-03-05T13:14:41.682Z,8.88
2023-03-05T13:17:30.288Z,16.23
2023-03-05T13:19:58.751Z,15.05
2023-03-05T13:22:25.689Z,13.32
2023-03-05T13:25:24.892Z,12.70
2023-03-05T13:27:51.911Z,12.32
2023-03-05T13:30:22.494Z,46.92
2023-03-05T13:32:52.295Z,10.90
2023-03-05T13:35:20.906Z,11.43
2023-03-05T13:37:48.703Z,13.88
2023-03-05T13:40:22.632Z,13.13
2023-03-05T13:42:49.568Z,12.98
2023-03-05T13:45:22.018Z,20.92
2023-03-05T13:47:54.886Z,13.60
2023-03-05T13:50:31.939Z,20.88
2023-03-05T13:53:29.780Z,11.48
2023-03-05T13:56:07.757Z,11.60
2023-03-05T13:58:49.539Z,14.50
2023-03-05T14:01:32.207Z,13.82
2023-03-05T14:04:02.927Z,12.32
2023-03-05T14:06:31.060Z,12.57
2023-03-05T14:09:08.755Z,13.20
2023-03-05T14:11:36.026Z,20.00
2023-03-05T14:14:08.155Z,20.90
2023-03-05T14:16:34.820Z,14.13
2023-03-05T14:19:07.309Z,12.38
2023-03-05T14:21:49.146Z,16.98
2023-03-05T14:24:23.371Z,15.20
2023-03-05T14:26:52.974Z,20.30
2023-03-05T14:29:23.661Z,14.77
2023-03-05T14:31:54.798Z,18.88
2023-03-05T14:34:50.913Z,14.90
2023-03-05T14:37:29.245Z,14.70
2023-03-05T14:39:59.585Z,17.50
2023-03-05T14:42:38.414Z,12.45
2023-03-05T14:45:18.453Z,18.38
2023-03-05T14:47:45.426Z,16.23
2023-03-05T14:50:21.206Z,15.75
2023-03-05T14:52:51.287Z,13.90
2023-03-05T14:55:20.307Z,15.48
2023-03-05T14:57:48.039Z,14.32
2023-03-05T15:00:23.284Z,13.93
2023-03-05T15:02:49.878Z,17.48
2023-03-05T15:05:17.628Z,15.75
2023-03-05T15:07:45.523Z,18.80
2023-03-05T15:10:15.740Z,19.75
2023-03-05T15:12:42.536Z,18.38
2023-03-05T15:15:11.642Z,17.17
2023-03-05T15:17:43.145Z,15.43
2023-03-05T15:20:16.096Z,33.92
2023-03-05T15:22:42.716Z,30.65
2023-03-05T15:25:11.696Z,16.88
2023-03-05T15:27:40.205Z,22.40
2023-03-05T15:30:08.901Z,19.08
2023-03-05T15:32:35.521Z,18.80
2023-03-05T15:35:02.104Z,21.02
2023-03-05T15:37:28.712Z,15.57
2023-03-05T15:39:55.187Z,13.70
2023-03-05T15:42:21.808Z,18.70
2023-03-05T15:44:48.438Z,15.80
2023-03-05T15:47:15.070Z,14.38
2023-03-05T15:49:41.722Z,15.57
2023-03-05T15:52:08.287Z,15.60
2023-03-05T15:54:36.132Z,13.05
2023-03-05T15:57:02.769Z,15.35
2023-03-05T15:59:29.401Z,17.83
2023-03-05T16:01:56.056Z,20.27
2023-03-05T16:04:22.672Z,16.48
2023-03-05T16:06:50.439Z,14.77
2023-03-05T16:09:19.877Z,13.35
2023-03-05T16:11:48.184Z,15.63
2023-03-05T16:14:21.531Z,12.82
2023-03-05T16:16:48.661Z,17.05
2023-03-05T16:19:18.362Z,15.80
2023-03-05T16:21:45.458Z,19.33
2023-03-05T16:24:12.333Z,33.90
2023-03-05T16:26:40.597Z,20.40
2023-03-05T16:29:07.363Z,17.05
2023-03-05T16:31:35.701Z,15.93
2023-03-05T16:34:02.341Z,22.80
2023-03-05T16:36:30.791Z,28.67
2023-03-05T16:39:00.419Z,31.75
2023-03-05T16:41:27.697Z,20.00
2023-03-05T16:43:56.494Z,15.00
2023-03-05T16:46:25.545Z,19.52
2023-03-05T16:48:52.444Z,17.65
2023-03-05T16:51:20.802Z,17.90
2023-03-05T16:53:47.534Z,16.90
2023-03-05T16:56:14.729Z,15.65
2023-03-05T16:58:41.658Z,26.52
2023-03-05T17:01:13.959Z,27.85
2023-03-05T17:03:41.673Z,21.08
2023-03-05T17:06:14.249Z,40.05
2023-03-05T17:08:43.031Z,21.90
2023-03-05T17:11:10.102Z,21.27
2023-03-05T17:13:37.646Z,18.33
2023-03-05T17:16:05.665Z,13.40
2023-03-05T17:18:32.943Z,18.88
2023-03-05T17:21:01.779Z,15.40
2023-03-05T17:23:28.453Z,21.20
2023-03-05T17:25:55.510Z,14.77
2023-03-05T17:28:22.266Z,19.65
2023-03-05T17:30:48.769Z,15.32
2023-03-05T17:33:15.408Z,10.80
2023-03-05T17:35:47.319Z,11.25
2023-03-05T17:38:14.715Z,12.85
2023-03-05T17:40:41.895Z,13.27
2023-03-05T17:43:08.812Z,15.77
2023-03-05T17:45:35.610Z,11.10
2023-03-05T17:48:02.324Z,12.57
2023-03-05T17:50:29.009Z,10.05
2023-03-05T17:52:55.550Z,11.35
2023-03-05T17:55:24.755Z,12.05
2023-03-05T17:57:51.878Z,13.82
2023-03-05T18:00:22.002Z,11.70
2023-03-05T18:02:49.632Z,13.15
2023-03-05T18:05:17.343Z,13.43
2023-03-05T18:07:43.929Z,8.68
2023-03-05T18:10:11.659Z,10.65
2023-03-05T18:12:39.128Z,8.77
2023-03-05T18:15:09.095Z,11.80
2023-03-05T18:17:54.758Z,14.18
2023-03-05T18:20:26.874Z,14.77
2023-03-05T18:22:54.103Z,11.25
2023-03-05T18:25:22.000Z,12.93
2023-03-05T18:27:48.617Z,13.55
2023-03-05T18:30:15.339Z,13.55
2023-03-05T18:32:41.946Z,10.63
2023-03-05T18:35:09.897Z,10.70
2023-03-05T18:37:38.398Z,10.50
2023-03-05T18:40:09.579Z,13.25
2023-03-05T18:42:37.128Z,11.75
2023-03-05T18:45:05.400Z,11.13
2023-03-05T18:47:33.328Z,12.65
2023-03-05T18:49:59.930Z,14.90
2023-03-05T18:52:26.701Z,11.82
2023-03-05T18:54:53.489Z,14.80
2023-03-05T18:57:20.284Z,13.88
2023-03-05T18:59:46.904Z,14.52
2023-03-05T19:02:18.073Z,10.82
2023-03-05T19:04:44.761Z,10.75
2023-03-05T19:07:11.386Z,13.70
2023-03-05T19:10:02.487Z,14.00
2023-03-05T19:12:35.233Z,9.80
2023-03-05T19:15:03.239Z,15.45
2023-03-05T19:17:31.844Z,15.18
2023-03-05T19:19:59.794Z,13.63
2023-03-05T19:22:26.992Z,11.45
2023-03-05T19:24:54.269Z,11.50
2023-03-05T19:27:21.035Z,11.25
2023-03-05T19:29:47.718Z,11.77
2023-03-05T19:32:17.576Z,12.30
2023-03-05T19:34:45.173Z,10.85
2023-03-05T19:37:12.518Z,14.30
2023-03-05T19:39:39.359Z,14.95
2023-03-05T19:42:06.480Z,13.40
2023-03-05T19:44:33.662Z,15.88
2023-03-05T19:47:00.324Z,10.18
2023-03-05T19:49:27.209Z,12.82
2023-03-05T19:51:53.733Z,8.30
2023-03-05T19:54:21.802Z,10.45
2023-03-05T19:56:49.616Z,10.93
2023-03-05T19:59:18.462Z,8.70
2023-03-05T20:01:46.351Z,10.63
2023-03-05T20:04:15.712Z,8.13
2023-03-05T20:06:42.622Z,11.63
2023-03-05T20:09:09.810Z,9.27
2023-03-05T20:11:37.182Z,9.85
2023-03-05T20:14:04.380Z,11.65
2023-03-05T20:16:35.324Z,12.73
2023-03-05T20:19:03.505Z,11.18
2023-03-05T20:21:37.425Z,8.68
2023-03-05T20:24:09.443Z,9.70
2023-03-05T20:26:38.330Z,9.52
2023-03-05T20:31:50.249Z,9.52
2023-03-05T20:34:18.982Z,10.35
2023-03-05T20:36:46.546Z,10.02
2023-03-05T20:39:13.136Z,9.90
2023-03-05T20:41:39.983Z,11.80
2023-03-05T20:44:07.357Z,9.68
2023-03-05T20:46:36.734Z,9.93
2023-03-05T20:49:04.818Z,9.48
2023-03-05T20:51:36.113Z,10.23
2023-03-05T20:54:06.174Z,11.20
2023-03-05T20:56:34.944Z,12.13
2023-03-05T20:59:04.883Z,11.18
2023-03-05T21:01:33.220Z,12.32
2023-03-05T21:04:03.045Z,10.38
2023-03-05T21:06:31.173Z,9.45
2023-03-05T21:08:58.210Z,8.48
2023-03-05T21:11:24.930Z,9.98
2023-03-05T21:13:51.482Z,9.30
2023-03-05T21:16:20.846Z,9.77
2023-03-05T21:18:48.017Z,9.57
2023-03-05T21:21:14.735Z,11.57
2023-03-05T21:23:41.404Z,12.70
2023-03-05T21:26:08.189Z,8.60
2023-03-05T21:28:34.818Z,10.52
2023-03-05T21:31:08.962Z,9.95
2023-03-05T21:33:36.146Z,10.02
2023-03-05T21:36:02.864Z,8.30
2023-03-05T21:38:30.995Z,8.68
2023-03-05T21:40:58.869Z,7.90
2023-03-05T21:43:26.644Z,9.65
2023-03-05T21:45:54.969Z,10.88
2023-03-05T21:48:22.457Z,11.02
2023-03-05T21:50:49.910Z,11.82
2023-03-05T21:53:19.952Z,13.18
2023-03-05T21:56:31.029Z,11.35
2023-03-05T21:58:58.019Z,14.60
2023-03-05T22:01:24.840Z,13.00
2023-03-05T22:03:51.741Z,13.07
2023-03-05T22:06:19.880Z,11.35
2023-03-05T22:08:47.226Z,15.93
2023-03-05T22:11:16.607Z,12.80
2023-03-05T22:13:44.033Z,10.50
2023-03-05T22:16:11.387Z,11.77
2023-03-05T22:18:38.235Z,8.63
2023-03-05T22:21:05.200Z,11.90
2023-03-05T22:23:36.834Z,9.40
2023-03-05T22:26:07.033Z,10.52
2023-03-05T22:28:34.987Z,10.15
2023-03-05T22:31:01.666Z,9.45
2023-03-05T22:33:28.965Z,11.02
2023-03-05T22:35:55.633Z,14.63
2023-03-05T22:38:23.068Z,9.48
2023-03-05T22:40:51.297Z,10.68
2023-03-05T22:43:18.673Z,12.85
2023-03-05T22:45:45.817Z,11.63
2023-03-05T22:48:12.779Z,9.40
2023-03-05T22:50:41.500Z,10.35
2023-03-05T22:53:08.545Z,11.13
2023-03-05T22:55:39.250Z,9.30
2023-03-05T22:58:05.883Z,10.60
2023-03-05T23:00:33.293Z,10.52
2023-03-05T23:03:00.009Z,12.23
2023-03-05T23:05:26.744Z,10.90
2023-03-05T23:07:53.379Z,11.77
2023-03-05T23:10:27.026Z,9.30
2023-03-05T23:12:55.318Z,10.43
2023-03-05T23:15:34.913Z,9.38
2023-03-05T23:18:02.430Z,10.38
2023-03-05T23:20:32.707Z,10.23
2023-03-05T23:22:59.870Z,10.10
2023-03-05T23:25:29.831Z,11.23
2023-03-05T23:27:58.167Z,8.63
2023-03-05T23:30:29.800Z,8.35
2023-03-05T23:32:57.934Z,12.45
2023-03-05T23:35:26.074Z,10.30
2023-03-05T23:37:55.662Z,10.00
2023-03-05T23:40:25.210Z,13.27
2023-03-05T23:42:52.937Z,13.50
2023-03-05T23:45:21.074Z,9.75
2023-03-05T23:47:48.494Z,11.43
2023-03-05T23:50:19.554Z,12.43
2023-03-05T23:52:46.589Z,13.18
2023-03-05T23:55:16.620Z,12.20
2023-03-05T23:57:44.125Z,11.98
